sensor_id;sensor_type;location;lat;lon;timestamp;pressure;altitude;pressure_sealevel;temperature;humidity
71638;BME280;59485;43.542;-5.676;2023-03-03T00:01:04;102310.72;;;7.31;100.00
71638;BME280;59485;43.542;-5.676;2023-03-03T00:03:42;102312.84;;;7.28;100.00
71638;BME280;59485;43.542;-5.676;2023-03-03T00:06:17;102309.66;;;7.23;100.00
71638;BME280;59485;43.542;-5.676;2023-03-03T00:08:42;102307.91;;;7.22;100.00
71638;BME280;59485;43.542;-5.676;2023-03-03T00:11:13;102307.19;;;7.20;100.00
71638;BME280;59485;43.542;-5.676;2023-03-03T00:13:52;102304.00;;;7.14;100.00
71638;BME280;59485;43.542;-5.676;2023-03-03T00:18:53;102308.09;;;7.09;100.00
71638;BME280;59485;43.542;-5.676;2023-03-03T00:21:41;102305.22;;;7.10;100.00
71638;BME280;59485;43.542;-5.676;2023-03-03T00:26:39;102308.94;;;7.09;100.00
71638;BME280;59485;43.542;-5.676;2023-03-03T00:31:52;102310.47;;;7.02;100.00
71638;BME280;59485;43.542;-5.676;2023-03-03T00:36:44;102308.50;;;7.04;100.00
71638;BME280;59485;43.542;-5.676;2023-03-03T00:39:29;102304.03;;;7.03;100.00
71638;BME280;59485;43.542;-5.676;2023-03-03T00:41:58;102297.97;;;7.00;100.00
71638;BME280;59485;43.542;-5.676;2023-03-03T00:44:33;102298.59;;;6.92;100.00
71638;BME280;59485;43.542;-5.676;2023-03-03T00:47:36;102299.13;;;6.86;100.00
71638;BME280;59485;43.542;-5.676;2023-03-03T00:52:36;102291.31;;;6.82;100.00
71638;BME280;59485;43.542;-5.676;2023-03-03T00:55:01;102291.84;;;6.75;100.00
71638;BME280;59485;43.542;-5.676;2023-03-03T00:57:28;102291.09;;;6.73;100.00
71638;BME280;59485;43.542;-5.676;2023-03-03T00:59:54;102292.97;;;6.73;100.00
71638;BME280;59485;43.542;-5.676;2023-03-03T01:02:29;102290.25;;;6.73;100.00
71638;BME280;59485;43.542;-5.676;2023-03-03T01:05:04;102285.78;;;6.72;100.00
71638;BME280;59485;43.542;-5.676;2023-03-03T01:07:29;102287.28;;;6.76;100.00
71638;BME280;59485;43.542;-5.676;2023-03-03T01:09:55;102282.81;;;6.75;100.00
71638;BME280;59485;43.542;-5.676;2023-03-03T01:12:20;102287.53;;;6.73;100.00
71638;BME280;59485;43.542;-5.676;2023-03-03T01:14:48;102281.47;;;6.69;100.00
71638;BME280;59485;43.542;-5.676;2023-03-03T01:17:26;102280.84;;;6.66;100.00
71638;BME280;59485;43.542;-5.676;2023-03-03T01:19:54;102285.09;;;6.59;100.00
71638;BME280;59485;43.542;-5.676;2023-03-03T01:22:26;102277.66;;;6.61;100.00
71638;BME280;59485;43.542;-5.676;2023-03-03T01:24:51;102287.69;;;6.60;100.00
71638;BME280;59485;43.542;-5.676;2023-03-03T01:27:16;102286.19;;;6.56;100.00
71638;BME280;59485;43.542;-5.676;2023-03-03T01:29:42;102280.88;;;6.55;100.00
71638;BME280;59485;43.542;-5.676;2023-03-03T01:32:07;102284.34;;;6.57;100.00
71638;BME280;59485;43.542;-5.676;2023-03-03T01:34:32;102291.91;;;6.53;100.00
71638;BME280;59485;43.542;-5.676;2023-03-03T01:36:58;102284.47;;;6.55;100.00
71638;BME280;59485;43.542;-5.676;2023-03-03T01:39:25;102279.88;;;6.56;100.00
71638;BME280;59485;43.542;-5.676;2023-03-03T01:41:50;102283.00;;;6.51;100.00
71638;BME280;59485;43.542;-5.676;2023-03-03T01:44:16;102282.72;;;6.54;100.00
71638;BME280;59485;43.542;-5.676;2023-03-03T04:44:28;102194.97;;;5.96;100.00
71638;BME280;59485;43.542;-5.676;2023-03-03T05:48:53;102211.56;;;5.93;100.00
71638;BME280;59485;43.542;-5.676;2023-03-03T05:53:45;102213.41;;;5.93;100.00
71638;BME280;59485;43.542;-5.676;2023-03-03T05:56:11;102216.00;;;5.94;100.00
71638;BME280;59485;43.542;-5.676;2023-03-03T05:58:45;102218.50;;;5.97;100.00
71638;BME280;59485;43.542;-5.676;2023-03-03T06:01:11;102218.50;;;5.97;100.00
71638;BME280;59485;43.542;-5.676;2023-03-03T06:03:36;102215.88;;;5.96;100.00
71638;BME280;59485;43.542;-5.676;2023-03-03T06:06:01;102216.63;;;5.98;100.00
71638;BME280;59485;43.542;-5.676;2023-03-03T06:08:27;102217.00;;;5.93;100.00
71638;BME280;59485;43.542;-5.676;2023-03-03T06:11:02;102227.13;;;5.91;100.00
71638;BME280;59485;43.542;-5.676;2023-03-03T06:13:27;102225.53;;;5.89;100.00
71638;BME280;59485;43.542;-5.676;2023-03-03T06:15:53;102234.69;;;5.88;100.00
71638;BME280;59485;43.542;-5.676;2023-03-03T06:18:18;102229.25;;;5.88;100.00
71638;BME280;59485;43.542;-5.676;2023-03-03T06:20:44;102231.06;;;5.87;100.00
71638;BME280;59485;43.542;-5.676;2023-03-03T06:23:09;102229.13;;;5.89;100.00
71638;BME280;59485;43.542;-5.676;2023-03-03T06:25:34;102232.72;;;5.90;100.00
71638;BME280;59485;43.542;-5.676;2023-03-03T06:28:00;102235.44;;;5.90;100.00
71638;BME280;59485;43.542;-5.676;2023-03-03T06:30:26;102233.44;;;5.92;100.00
71638;BME280;59485;43.542;-5.676;2023-03-03T06:32:55;102238.75;;;5.93;100.00
71638;BME280;59485;43.542;-5.676;2023-03-03T06:35:23;102241.50;;;5.93;100.00
71638;BME280;59485;43.542;-5.676;2023-03-03T06:37:49;102241.59;;;5.92;100.00
71638;BME280;59485;43.542;-5.676;2023-03-03T06:40:15;102238.88;;;5.92;100.00
71638;BME280;59485;43.542;-5.676;2023-03-03T06:42:40;102245.31;;;5.91;100.00
71638;BME280;59485;43.542;-5.676;2023-03-03T06:45:05;102248.03;;;5.91;100.00
71638;BME280;59485;43.542;-5.676;2023-03-03T06:47:31;102250.63;;;5.92;100.00
71638;BME280;59485;43.542;-5.676;2023-03-03T06:49:57;102250.63;;;5.92;100.00
71638;BME280;59485;43.542;-5.676;2023-03-03T06:52:24;102257.94;;;5.92;100.00
71638;BME280;59485;43.542;-5.676;2023-03-03T06:55:09;102257.06;;;5.91;100.00
71638;BME280;59485;43.542;-5.676;2023-03-03T06:57:36;102256.47;;;5.88;100.00
71638;BME280;59485;43.542;-5.676;2023-03-03T07:02:44;102262.00;;;5.86;100.00
71638;BME280;59485;43.542;-5.676;2023-03-03T07:05:13;102260.81;;;5.90;100.00
71638;BME280;59485;43.542;-5.676;2023-03-03T07:07:42;102260.91;;;5.89;100.00
71638;BME280;59485;43.542;-5.676;2023-03-03T07:10:19;102264.38;;;5.91;100.00
71638;BME280;59485;43.542;-5.676;2023-03-03T07:12:52;102264.38;;;5.91;100.00
71638;BME280;59485;43.542;-5.676;2023-03-03T07:17:54;102278.22;;;5.88;100.00
71638;BME280;59485;43.542;-5.676;2023-03-03T07:20:21;102281.81;;;5.88;100.00
71638;BME280;59485;43.542;-5.676;2023-03-03T07:22:56;102288.03;;;5.90;100.00
71638;BME280;59485;43.542;-5.676;2023-03-03T07:25:31;102283.41;;;5.91;100.00
71638;BME280;59485;43.542;-5.676;2023-03-03T07:28:10;102288.13;;;5.89;100.00
71638;BME280;59485;43.542;-5.676;2023-03-03T07:30:41;102288.72;;;5.92;100.00
71638;BME280;59485;43.542;-5.676;2023-03-03T07:33:08;102291.22;;;5.95;100.00
71638;BME280;59485;43.542;-5.676;2023-03-03T07:35:52;102294.06;;;5.94;100.00
71638;BME280;59485;43.542;-5.676;2023-03-03T07:41:01;102297.41;;;5.97;100.00
71638;BME280;59485;43.542;-5.676;2023-03-03T07:46:19;102305.31;;;6.00;100.00
71638;BME280;59485;43.542;-5.676;2023-03-03T07:48:57;102305.06;;;6.03;100.00
71638;BME280;59485;43.542;-5.676;2023-03-03T07:51:27;102305.81;;;6.06;100.00
71638;BME280;59485;43.542;-5.676;2023-03-03T07:56:47;102308.91;;;6.12;100.00
71638;BME280;59485;43.542;-5.676;2023-03-03T07:59:34;102303.22;;;6.15;100.00
71638;BME280;59485;43.542;-5.676;2023-03-03T08:02:01;102300.50;;;6.15;100.00
71638;BME280;59485;43.542;-5.676;2023-03-03T08:04:38;102307.53;;;6.18;100.00
71638;BME280;59485;43.542;-5.676;2023-03-03T08:07:08;102311.88;;;6.20;100.00
71638;BME280;59485;43.542;-5.676;2023-03-03T08:09:42;102315.34;;;6.22;100.00
71638;BME280;59485;43.542;-5.676;2023-03-03T08:14:46;102308.53;;;6.28;100.00
71638;BME280;59485;43.542;-5.676;2023-03-03T08:17:33;102309.16;;;6.31;100.00
71638;BME280;59485;43.542;-5.676;2023-03-03T08:20:00;102315.06;;;6.36;100.00
71638;BME280;59485;43.542;-5.676;2023-03-03T08:28:09;102325.50;;;6.43;100.00
71638;BME280;59485;43.542;-5.676;2023-03-03T08:30:34;102325.22;;;6.46;100.00
71638;BME280;59485;43.542;-5.676;2023-03-03T08:33:00;102322.38;;;6.47;100.00
71638;BME280;59485;43.542;-5.676;2023-03-03T08:35:28;102336.63;;;6.51;100.00
71638;BME280;59485;43.542;-5.676;2023-03-03T08:38:06;102338.09;;;6.55;100.00
71638;BME280;59485;43.542;-5.676;2023-03-03T08:40:32;102337.59;;;6.61;100.00
71638;BME280;59485;43.542;-5.676;2023-03-03T08:42:57;102330.16;;;6.63;100.00
71638;BME280;59485;43.542;-5.676;2023-03-03T08:45:23;102335.59;;;6.63;100.00
71638;BME280;59485;43.542;-5.676;2023-03-03T08:47:52;102332.63;;;6.66;100.00
71638;BME280;59485;43.542;-5.676;2023-03-03T08:50:17;102341.53;;;6.68;100.00
71638;BME280;59485;43.542;-5.676;2023-03-03T08:52:43;102339.69;;;6.68;100.00
71638;BME280;59485;43.542;-5.676;2023-03-03T08:55:17;102345.13;;;6.68;100.00
71638;BME280;59485;43.542;-5.676;2023-03-03T08:57:52;102349.47;;;6.71;100.00
71638;BME280;59485;43.542;-5.676;2023-03-03T09:00:33;102348.34;;;6.73;100.00
71638;BME280;59485;43.542;-5.676;2023-03-03T09:02:58;102348.22;;;6.75;100.00
71638;BME280;59485;43.542;-5.676;2023-03-03T09:05:24;102347.09;;;6.77;100.00
71638;BME280;59485;43.542;-5.676;2023-03-03T09:07:50;102355.00;;;6.81;100.00
71638;BME280;59485;43.542;-5.676;2023-03-03T09:10:18;102354.13;;;6.80;100.00
71638;BME280;59485;43.542;-5.676;2023-03-03T09:15:26;102351.91;;;6.85;100.00
71638;BME280;59485;43.542;-5.676;2023-03-03T09:26:24;102348.50;;;7.04;100.00
71638;BME280;59485;43.542;-5.676;2023-03-03T09:28:56;102347.00;;;7.11;100.00
71638;BME280;59485;43.542;-5.676;2023-03-03T09:31:33;102346.88;;;7.12;100.00
71638;BME280;59485;43.542;-5.676;2023-03-03T09:33:59;102347.81;;;7.23;100.00
71638;BME280;59485;43.542;-5.676;2023-03-03T09:36:26;102347.19;;;7.30;100.00
71638;BME280;59485;43.542;-5.676;2023-03-03T09:41:51;102357.50;;;7.47;100.00
71638;BME280;59485;43.542;-5.676;2023-03-03T09:47:28;102343.16;;;7.66;100.00
71638;BME280;59485;43.542;-5.676;2023-03-03T09:50:02;102348.81;;;7.74;100.00
71638;BME280;59485;43.542;-5.676;2023-03-03T09:55:29;102345.59;;;7.90;100.00
71638;BME280;59485;43.542;-5.676;2023-03-03T09:58:08;102336.00;;;7.96;100.00
71638;BME280;59485;43.542;-5.676;2023-03-03T10:13:25;102338.75;;;8.56;100.00
71638;BME280;59485;43.542;-5.676;2023-03-03T10:18:49;102335.09;;;8.77;100.00
71638;BME280;59485;43.542;-5.676;2023-03-03T10:42:49;102311.59;;;9.70;100.00
71638;BME280;59485;43.542;-5.676;2023-03-03T10:48:14;102318.78;;;9.81;100.00
71638;BME280;59485;43.542;-5.676;2023-03-03T11:08:54;102310.59;;;10.28;100.00
71638;BME280;59485;43.542;-5.676;2023-03-03T11:11:41;102308.00;;;10.26;100.00
71638;BME280;59485;43.542;-5.676;2023-03-03T11:14:23;102309.75;;;10.27;100.00
71638;BME280;59485;43.542;-5.676;2023-03-03T11:25:07;102309.22;;;10.41;100.00
71638;BME280;59485;43.542;-5.676;2023-03-03T11:27:44;102300.88;;;10.43;100.00
71638;BME280;59485;43.542;-5.676;2023-03-03T11:38:37;102291.88;;;10.50;100.00
71638;BME280;59485;43.542;-5.676;2023-03-03T11:43:47;102289.59;;;10.46;100.00
71638;BME280;59485;43.542;-5.676;2023-03-03T13:19:10;102199.84;;;10.83;100.00
71638;BME280;59485;43.542;-5.676;2023-03-03T13:46:42;102190.28;;;11.05;100.00
71638;BME280;59485;43.542;-5.676;2023-03-03T13:57:58;102191.50;;;11.11;100.00
71638;BME280;59485;43.542;-5.676;2023-03-03T14:56:38;102164.44;;;11.68;100.00
71638;BME280;59485;43.542;-5.676;2023-03-03T15:04:36;102162.69;;;11.92;100.00
71638;BME280;59485;43.542;-5.676;2023-03-03T15:10:10;102148.81;;;11.94;100.00
71638;BME280;59485;43.542;-5.676;2023-03-03T15:15:18;102141.66;;;12.17;100.00
71638;BME280;59485;43.542;-5.676;2023-03-03T15:20:22;102146.00;;;12.44;100.00
71638;BME280;59485;43.542;-5.676;2023-03-03T15:31:27;102145.53;;;12.65;100.00
71638;BME280;59485;43.542;-5.676;2023-03-03T15:56:09;102136.13;;;14.18;100.00
71638;BME280;59485;43.542;-5.676;2023-03-03T16:04:05;102134.34;;;14.79;100.00
71638;BME280;59485;43.542;-5.676;2023-03-03T16:09:12;102129.75;;;14.72;100.00
71638;BME280;59485;43.542;-5.676;2023-03-03T16:19:45;102130.06;;;14.54;100.00
71638;BME280;59485;43.542;-5.676;2023-03-03T16:24:52;102136.63;;;14.22;100.00
71638;BME280;59485;43.542;-5.676;2023-03-03T16:27:36;102133.06;;;14.13;100.00
71638;BME280;59485;43.542;-5.676;2023-03-03T16:33:17;102133.75;;;14.07;100.00
71638;BME280;59485;43.542;-5.676;2023-03-03T16:49:32;102130.19;;;13.60;100.00
71638;BME280;59485;43.542;-5.676;2023-03-03T16:52:16;102128.59;;;13.65;100.00
71638;BME280;59485;43.542;-5.676;2023-03-03T17:00:22;102141.81;;;13.14;100.00
71638;BME280;59485;43.542;-5.676;2023-03-03T17:13:54;102154.66;;;12.90;100.00
71638;BME280;59485;43.542;-5.676;2023-03-03T17:16:50;102150.00;;;12.66;100.00
71638;BME280;59485;43.542;-5.676;2023-03-03T17:19:48;102159.97;;;12.51;100.00
71638;BME280;59485;43.542;-5.676;2023-03-03T17:25:21;102158.06;;;12.43;100.00
71638;BME280;59485;43.542;-5.676;2023-03-03T17:44:28;102176.53;;;11.75;100.00
71638;BME280;59485;43.542;-5.676;2023-03-03T17:55:19;102191.06;;;11.41;100.00
71638;BME280;59485;43.542;-5.676;2023-03-03T18:05:38;102207.66;;;11.14;100.00
71638;BME280;59485;43.542;-5.676;2023-03-03T18:18:59;102216.84;;;10.87;100.00
71638;BME280;59485;43.542;-5.676;2023-03-03T18:37:44;102250.91;;;10.49;100.00
71638;BME280;59485;43.542;-5.676;2023-03-03T18:40:27;102242.28;;;10.44;100.00
71638;BME280;59485;43.542;-5.676;2023-03-03T18:42:53;102248.78;;;10.43;100.00
71638;BME280;59485;43.542;-5.676;2023-03-03T18:48:28;102239.44;;;10.36;100.00
71638;BME280;59485;43.542;-5.676;2023-03-03T18:55:47;102254.38;;;10.24;100.00
71638;BME280;59485;43.542;-5.676;2023-03-03T19:05:48;102257.28;;;10.03;100.00
71638;BME280;59485;43.542;-5.676;2023-03-03T19:08:24;102260.50;;;9.98;100.00
71638;BME280;59485;43.542;-5.676;2023-03-03T19:10:54;102264.53;;;9.94;100.00
71638;BME280;59485;43.542;-5.676;2023-03-03T19:13:39;102266.72;;;9.91;100.00
71638;BME280;59485;43.542;-5.676;2023-03-03T19:31:41;102267.69;;;9.53;100.00
71638;BME280;59485;43.542;-5.676;2023-03-03T19:37:11;102271.59;;;9.50;100.00
71638;BME280;59485;43.542;-5.676;2023-03-03T19:42:18;102275.78;;;9.45;100.00
71638;BME280;59485;43.542;-5.676;2023-03-03T20:00:12;102283.72;;;9.19;100.00
71638;BME280;59485;43.542;-5.676;2023-03-03T20:13:51;102294.94;;;8.96;100.00
71638;BME280;59485;43.542;-5.676;2023-03-03T20:34:26;102291.91;;;8.80;100.00
71638;BME280;59485;43.542;-5.676;2023-03-03T20:47:51;102308.13;;;8.62;100.00
71638;BME280;59485;43.542;-5.676;2023-03-03T20:58:26;102321.72;;;8.43;100.00
71638;BME280;59485;43.542;-5.676;2023-03-03T21:01:05;102322.56;;;8.34;100.00
71638;BME280;59485;43.542;-5.676;2023-03-03T21:03:32;102332.41;;;8.25;100.00
71638;BME280;59485;43.542;-5.676;2023-03-03T21:05:59;102335.97;;;8.16;100.00
71638;BME280;59485;43.542;-5.676;2023-03-03T21:08:38;102327.03;;;8.14;100.00
71638;BME280;59485;43.542;-5.676;2023-03-03T21:11:03;102328.72;;;8.06;100.00
71638;BME280;59485;43.542;-5.676;2023-03-03T21:13:45;102322.69;;;8.02;100.00
71638;BME280;59485;43.542;-5.676;2023-03-03T21:18:42;102330.81;;;7.93;100.00
71638;BME280;59485;43.542;-5.676;2023-03-03T21:21:27;102339.69;;;7.85;100.00
71638;BME280;59485;43.542;-5.676;2023-03-03T21:23:54;102335.47;;;7.81;100.00
71638;BME280;59485;43.542;-5.676;2023-03-03T21:29:03;102338.63;;;7.76;100.00
71638;BME280;59485;43.542;-5.676;2023-03-03T21:31:42;102329.25;;;7.69;100.00
71638;BME280;59485;43.542;-5.676;2023-03-03T21:37:04;102331.22;;;7.46;100.00
71638;BME280;59485;43.542;-5.676;2023-03-03T21:39:39;102339.31;;;7.37;100.00
71638;BME280;59485;43.542;-5.676;2023-03-03T21:42:24;102341.59;;;7.32;100.00
71638;BME280;59485;43.542;-5.676;2023-03-03T21:44:56;102339.25;;;7.27;100.00
71638;BME280;59485;43.542;-5.676;2023-03-03T21:47:22;102335.06;;;7.23;100.00
71638;BME280;59485;43.542;-5.676;2023-03-03T21:49:48;102337.03;;;7.21;100.00
71638;BME280;59485;43.542;-5.676;2023-03-03T21:52:26;102343.28;;;7.12;100.00
71638;BME280;59485;43.542;-5.676;2023-03-03T21:54:51;102343.81;;;7.06;100.00
71638;BME280;59485;43.542;-5.676;2023-03-03T21:57:17;102342.72;;;6.97;100.00
71638;BME280;59485;43.542;-5.676;2023-03-03T21:59:42;102341.47;;;6.90;100.00
71638;BME280;59485;43.542;-5.676;2023-03-03T22:02:19;102341.88;;;6.86;100.00
71638;BME280;59485;43.542;-5.676;2023-03-03T22:07:12;102341.66;;;6.77;100.00
71638;BME280;59485;43.542;-5.676;2023-03-03T22:12:15;102347.75;;;6.70;100.00
71638;BME280;59485;43.542;-5.676;2023-03-03T22:14:40;102348.09;;;6.65;100.00
71638;BME280;59485;43.542;-5.676;2023-03-03T22:17:05;102344.03;;;6.60;100.00
71638;BME280;59485;43.542;-5.676;2023-03-03T22:19:31;102349.38;;;6.61;100.00
71638;BME280;59485;43.542;-5.676;2023-03-03T22:21:58;102348.13;;;6.54;100.00
71638;BME280;59485;43.542;-5.676;2023-03-03T22:27:01;102345.66;;;6.51;100.00
71638;BME280;59485;43.542;-5.676;2023-03-03T22:29:27;102347.16;;;6.44;100.00
71638;BME280;59485;43.542;-5.676;2023-03-03T22:32:02;102357.19;;;6.44;100.00
71638;BME280;59485;43.542;-5.676;2023-03-03T22:34:27;102353.44;;;6.45;100.00
71638;BME280;59485;43.542;-5.676;2023-03-03T22:36:53;102361.38;;;6.48;100.00
71638;BME280;59485;43.542;-5.676;2023-03-03T22:39:18;102358.13;;;6.54;100.00
71638;BME280;59485;43.542;-5.676;2023-03-03T22:41:44;102357.03;;;6.56;100.00
71638;BME280;59485;43.542;-5.676;2023-03-03T22:44:12;102359.50;;;6.59;100.00
71638;BME280;59485;43.542;-5.676;2023-03-03T22:46:37;102363.59;;;6.65;100.00
71638;BME280;59485;43.542;-5.676;2023-03-03T22:49:09;102355.91;;;6.70;100.00
71638;BME280;59485;43.542;-5.676;2023-03-03T22:51:34;102354.41;;;6.77;100.00
71638;BME280;59485;43.542;-5.676;2023-03-03T22:53:59;102363.69;;;6.86;100.00
71638;BME280;59485;43.542;-5.676;2023-03-03T22:56:25;102362.03;;;6.94;100.00
71638;BME280;59485;43.542;-5.676;2023-03-03T22:58:50;102355.47;;;6.97;100.00
71638;BME280;59485;43.542;-5.676;2023-03-03T23:01:16;102359.78;;;6.99;100.00
71638;BME280;59485;43.542;-5.676;2023-03-03T23:03:41;102366.22;;;6.98;100.00
71638;BME280;59485;43.542;-5.676;2023-03-03T23:06:06;102347.78;;;7.02;100.00
71638;BME280;59485;43.542;-5.676;2023-03-03T23:08:32;102354.09;;;7.02;100.00
71638;BME280;59485;43.542;-5.676;2023-03-03T23:10:57;102364.53;;;6.97;100.00
71638;BME280;59485;43.542;-5.676;2023-03-03T23:13:22;102363.78;;;6.95;100.00
71638;BME280;59485;43.542;-5.676;2023-03-03T23:15:49;102363.28;;;6.90;100.00
71638;BME280;59485;43.542;-5.676;2023-03-03T23:18:14;102365.53;;;6.85;100.00
71638;BME280;59485;43.542;-5.676;2023-03-03T23:20:39;102356.50;;;6.85;100.00
71638;BME280;59485;43.542;-5.676;2023-03-03T23:23:09;102364.66;;;6.85;100.00
71638;BME280;59485;43.542;-5.676;2023-03-03T23:25:41;102359.09;;;6.86;100.00
71638;BME280;59485;43.542;-5.676;2023-03-03T23:28:15;102353.75;;;6.85;100.00
71638;BME280;59485;43.542;-5.676;2023-03-03T23:30:42;102352.38;;;6.90;100.00
71638;BME280;59485;43.542;-5.676;2023-03-03T23:33:07;102354.63;;;6.96;100.00
71638;BME280;59485;43.542;-5.676;2023-03-03T23:35:33;102351.50;;;7.01;100.00
71638;BME280;59485;43.542;-5.676;2023-03-03T23:40:33;102349.50;;;7.03;100.00
71638;BME280;59485;43.542;-5.676;2023-03-03T23:42:58;102348.63;;;7.02;100.00
71638;BME280;59485;43.542;-5.676;2023-03-03T23:45:30;102343.94;;;7.04;100.00
71638;BME280;59485;43.542;-5.676;2023-03-03T23:50:24;102346.13;;;7.10;100.00
71638;BME280;59485;43.542;-5.676;2023-03-03T23:55:21;102347.13;;;7.09;100.00
71638;BME280;59485;43.542;-5.676;2023-03-03T23:57:46;102341.41;;;7.12;100.00
